sensor_id;sensor_type;location;lat;lon;timestamp;P1;durP1;ratioP1;P2;durP2;ratioP2
12493;SDS011;8260;51.422;6.786;2023-02-01T00:00:25;18.75;;;6.72;;
12493;SDS011;8260;51.422;6.786;2023-02-01T00:02:53;14.15;;;5.97;;
12493;SDS011;8260;51.422;6.786;2023-02-01T00:05:21;10.68;;;5.95;;
12493;SDS011;8260;51.422;6.786;2023-02-01T00:07:50;15.00;;;5.82;;
12493;SDS011;8260;51.422;6.786;2023-02-01T00:10:18;14.45;;;5.63;;
12493;SDS011;8260;51.422;6.786;2023-02-01T00:12:47;11.73;;;5.60;;
12493;SDS011;8260;51.422;6.786;2023-02-01T00:15:16;16.73;;;5.35;;
12493;SDS011;8260;51.422;6.786;2023-02-01T00:17:46;16.85;;;5.88;;
12493;SDS011;8260;51.422;6.786;2023-02-01T00:20:14;17.23;;;5.57;;
12493;SDS011;8260;51.422;6.786;2023-02-01T00:22:43;13.38;;;5.18;;
12493;SDS011;8260;51.422;6.786;2023-02-01T00:25:11;17.27;;;5.18;;
12493;SDS011;8260;51.422;6.786;2023-02-01T00:27:40;8.68;;;4.53;;
12493;SDS011;8260;51.422;6.786;2023-02-01T00:30:09;17.00;;;5.18;;
12493;SDS011;8260;51.422;6.786;2023-02-01T00:32:37;11.75;;;4.93;;
12493;SDS011;8260;51.422;6.786;2023-02-01T00:35:08;17.90;;;5.00;;
12493;SDS011;8260;51.422;6.786;2023-02-01T00:37:36;13.63;;;5.15;;
12493;SDS011;8260;51.422;6.786;2023-02-01T00:40:05;14.05;;;5.45;;
12493;SDS011;8260;51.422;6.786;2023-02-01T00:42:34;14.73;;;5.05;;
12493;SDS011;8260;51.422;6.786;2023-02-01T00:45:03;15.35;;;5.15;;
12493;SDS011;8260;51.422;6.786;2023-02-01T00:47:31;14.38;;;5.55;;
12493;SDS011;8260;51.422;6.786;2023-02-01T00:50:00;15.63;;;6.10;;
12493;SDS011;8260;51.422;6.786;2023-02-01T00:52:29;13.88;;;6.18;;
12493;SDS011;8260;51.422;6.786;2023-02-01T00:54:58;15.45;;;6.57;;
12493;SDS011;8260;51.422;6.786;2023-02-01T00:57:26;16.88;;;7.10;;
12493;SDS011;8260;51.422;6.786;2023-02-01T00:59:55;21.77;;;7.88;;
12493;SDS011;8260;51.422;6.786;2023-02-01T01:02:24;19.48;;;8.23;;
12493;SDS011;8260;51.422;6.786;2023-02-01T01:04:54;16.35;;;7.63;;
12493;SDS011;8260;51.422;6.786;2023-02-01T01:07:22;19.95;;;8.38;;
12493;SDS011;8260;51.422;6.786;2023-02-01T01:09:52;17.48;;;8.35;;
12493;SDS011;8260;51.422;6.786;2023-02-01T01:12:20;16.25;;;7.72;;
12493;SDS011;8260;51.422;6.786;2023-02-01T01:14:49;19.58;;;8.10;;
12493;SDS011;8260;51.422;6.786;2023-02-01T01:17:17;18.15;;;8.10;;
12493;SDS011;8260;51.422;6.786;2023-02-01T01:19:46;16.77;;;7.85;;
12493;SDS011;8260;51.422;6.786;2023-02-01T01:22:14;21.52;;;8.52;;
12493;SDS011;8260;51.422;6.786;2023-02-01T01:24:44;21.52;;;8.95;;
12493;SDS011;8260;51.422;6.786;2023-02-01T01:27:14;13.73;;;7.15;;
12493;SDS011;8260;51.422;6.786;2023-02-01T01:29:49;16.70;;;8.00;;
12493;SDS011;8260;51.422;6.786;2023-02-01T01:32:17;20.13;;;8.23;;
12493;SDS011;8260;51.422;6.786;2023-02-01T01:34:45;17.60;;;8.02;;
12493;SDS011;8260;51.422;6.786;2023-02-01T01:37:14;16.92;;;8.27;;
12493;SDS011;8260;51.422;6.786;2023-02-01T01:39:42;17.85;;;7.80;;
12493;SDS011;8260;51.422;6.786;2023-02-01T01:42:11;18.58;;;7.95;;
12493;SDS011;8260;51.422;6.786;2023-02-01T01:45:03;17.00;;;8.20;;
12493;SDS011;8260;51.422;6.786;2023-02-01T01:47:33;13.43;;;7.00;;
12493;SDS011;8260;51.422;6.786;2023-02-01T01:50:03;14.73;;;6.47;;
12493;SDS011;8260;51.422;6.786;2023-02-01T01:52:32;18.98;;;6.60;;
12493;SDS011;8260;51.422;6.786;2023-02-01T01:55:01;12.68;;;5.72;;
12493;SDS011;8260;51.422;6.786;2023-02-01T01:57:30;12.35;;;5.68;;
12493;SDS011;8260;51.422;6.786;2023-02-01T02:00:03;15.82;;;5.43;;
12493;SDS011;8260;51.422;6.786;2023-02-01T02:02:33;15.60;;;5.03;;
12493;SDS011;8260;51.422;6.786;2023-02-01T02:05:03;14.27;;;5.97;;
12493;SDS011;8260;51.422;6.786;2023-02-01T02:07:32;18.42;;;5.53;;
12493;SDS011;8260;51.422;6.786;2023-02-01T02:10:05;15.38;;;4.60;;
12493;SDS011;8260;51.422;6.786;2023-02-01T02:12:37;9.80;;;4.53;;
12493;SDS011;8260;51.422;6.786;2023-02-01T02:15:08;15.95;;;4.40;;
12493;SDS011;8260;51.422;6.786;2023-02-01T02:17:39;13.85;;;4.40;;
12493;SDS011;8260;51.422;6.786;2023-02-01T02:25:50;15.88;;;4.07;;
12493;SDS011;8260;51.422;6.786;2023-02-01T02:28:29;11.63;;;4.13;;
12493;SDS011;8260;51.422;6.786;2023-02-01T02:31:07;12.50;;;4.38;;
12493;SDS011;8260;51.422;6.786;2023-02-01T02:36:34;13.07;;;3.97;;
12493;SDS011;8260;51.422;6.786;2023-02-01T02:39:05;14.80;;;4.10;;
12493;SDS011;8260;51.422;6.786;2023-02-01T02:41:37;11.80;;;3.97;;
12493;SDS011;8260;51.422;6.786;2023-02-01T02:44:27;12.27;;;3.80;;
12493;SDS011;8260;51.422;6.786;2023-02-01T02:47:20;22.65;;;4.65;;
12493;SDS011;8260;51.422;6.786;2023-02-01T02:49:53;15.20;;;3.88;;
12493;SDS011;8260;51.422;6.786;2023-02-01T02:52:38;14.35;;;4.15;;
12493;SDS011;8260;51.422;6.786;2023-02-01T02:55:27;9.23;;;3.50;;
12493;SDS011;8260;51.422;6.786;2023-02-01T02:57:56;12.70;;;3.95;;
12493;SDS011;8260;51.422;6.786;2023-02-01T03:00:43;15.70;;;4.97;;
12493;SDS011;8260;51.422;6.786;2023-02-01T03:03:30;14.15;;;4.00;;
12493;SDS011;8260;51.422;6.786;2023-02-01T03:06:16;12.23;;;3.88;;
12493;SDS011;8260;51.422;6.786;2023-02-01T03:08:47;14.40;;;4.15;;
12493;SDS011;8260;51.422;6.786;2023-02-01T03:11:20;14.27;;;3.72;;
12493;SDS011;8260;51.422;6.786;2023-02-01T03:13:49;18.25;;;4.07;;
12493;SDS011;8260;51.422;6.786;2023-02-01T03:16:19;15.05;;;4.32;;
12493;SDS011;8260;51.422;6.786;2023-02-01T03:18:52;14.90;;;3.95;;
12493;SDS011;8260;51.422;6.786;2023-02-01T03:21:23;13.38;;;3.80;;
12493;SDS011;8260;51.422;6.786;2023-02-01T03:23:55;18.20;;;4.57;;
12493;SDS011;8260;51.422;6.786;2023-02-01T03:26:24;17.33;;;3.70;;
12493;SDS011;8260;51.422;6.786;2023-02-01T03:28:57;12.75;;;3.75;;
12493;SDS011;8260;51.422;6.786;2023-02-01T03:31:28;13.43;;;4.40;;
12493;SDS011;8260;51.422;6.786;2023-02-01T03:33:57;21.95;;;5.00;;
12493;SDS011;8260;51.422;6.786;2023-02-01T03:36:26;25.42;;;4.70;;
12493;SDS011;8260;51.422;6.786;2023-02-01T03:39:00;17.17;;;4.03;;
12493;SDS011;8260;51.422;6.786;2023-02-01T03:41:33;15.02;;;4.82;;
12493;SDS011;8260;51.422;6.786;2023-02-01T03:44:04;16.25;;;3.97;;
12493;SDS011;8260;51.422;6.786;2023-02-01T03:46:37;11.60;;;3.97;;
12493;SDS011;8260;51.422;6.786;2023-02-01T03:49:08;13.23;;;4.70;;
12493;SDS011;8260;51.422;6.786;2023-02-01T03:51:38;16.75;;;4.50;;
12493;SDS011;8260;51.422;6.786;2023-02-01T03:54:10;14.07;;;4.60;;
12493;SDS011;8260;51.422;6.786;2023-02-01T03:56:41;18.95;;;4.65;;
12493;SDS011;8260;51.422;6.786;2023-02-01T03:59:11;19.88;;;4.25;;
12493;SDS011;8260;51.422;6.786;2023-02-01T04:01:40;18.65;;;5.72;;
12493;SDS011;8260;51.422;6.786;2023-02-01T04:04:08;16.88;;;5.38;;
12493;SDS011;8260;51.422;6.786;2023-02-01T04:06:37;16.60;;;4.55;;
12493;SDS011;8260;51.422;6.786;2023-02-01T04:09:05;17.40;;;4.97;;
12493;SDS011;8260;51.422;6.786;2023-02-01T04:11:35;15.13;;;3.88;;
12493;SDS011;8260;51.422;6.786;2023-02-01T04:14:04;12.68;;;4.13;;
12493;SDS011;8260;51.422;6.786;2023-02-01T04:16:32;18.10;;;4.80;;
12493;SDS011;8260;51.422;6.786;2023-02-01T04:19:01;18.60;;;4.93;;
12493;SDS011;8260;51.422;6.786;2023-02-01T04:21:29;21.35;;;4.97;;
12493;SDS011;8260;51.422;6.786;2023-02-01T04:23:58;17.92;;;4.18;;
12493;SDS011;8260;51.422;6.786;2023-02-01T04:26:26;17.50;;;4.53;;
12493;SDS011;8260;51.422;6.786;2023-02-01T04:28:56;19.23;;;4.88;;
12493;SDS011;8260;51.422;6.786;2023-02-01T04:31:24;19.90;;;4.18;;
12493;SDS011;8260;51.422;6.786;2023-02-01T04:33:54;16.63;;;4.47;;
12493;SDS011;8260;51.422;6.786;2023-02-01T04:36:23;16.42;;;3.63;;
12493;SDS011;8260;51.422;6.786;2023-02-01T04:38:52;17.20;;;4.68;;
12493;SDS011;8260;51.422;6.786;2023-02-01T04:41:20;13.45;;;4.13;;
12493;SDS011;8260;51.422;6.786;2023-02-01T04:43:49;16.40;;;4.88;;
12493;SDS011;8260;51.422;6.786;2023-02-01T04:46:20;16.63;;;4.35;;
12493;SDS011;8260;51.422;6.786;2023-02-01T04:48:48;16.60;;;4.82;;
12493;SDS011;8260;51.422;6.786;2023-02-01T04:51:17;20.45;;;5.32;;
12493;SDS011;8260;51.422;6.786;2023-02-01T04:53:45;11.70;;;4.80;;
12493;SDS011;8260;51.422;6.786;2023-02-01T04:56:13;15.77;;;4.45;;
12493;SDS011;8260;51.422;6.786;2023-02-01T04:58:42;14.48;;;4.50;;
12493;SDS011;8260;51.422;6.786;2023-02-01T05:01:10;18.27;;;4.85;;
12493;SDS011;8260;51.422;6.786;2023-02-01T05:03:40;15.18;;;4.35;;
12493;SDS011;8260;51.422;6.786;2023-02-01T05:06:09;20.02;;;5.00;;
12493;SDS011;8260;51.422;6.786;2023-02-01T05:08:37;17.55;;;5.10;;
12493;SDS011;8260;51.422;6.786;2023-02-01T05:11:06;21.95;;;4.63;;
12493;SDS011;8260;51.422;6.786;2023-02-01T05:13:54;15.35;;;4.47;;
12493;SDS011;8260;51.422;6.786;2023-02-01T05:16:22;13.93;;;4.68;;
12493;SDS011;8260;51.422;6.786;2023-02-01T05:18:52;17.52;;;4.05;;
12493;SDS011;8260;51.422;6.786;2023-02-01T05:21:20;18.33;;;3.60;;
12493;SDS011;8260;51.422;6.786;2023-02-01T05:23:48;19.77;;;3.92;;
12493;SDS011;8260;51.422;6.786;2023-02-01T05:26:34;17.30;;;4.40;;
12493;SDS011;8260;51.422;6.786;2023-02-01T05:29:03;23.33;;;4.72;;
12493;SDS011;8260;51.422;6.786;2023-02-01T05:31:32;17.08;;;4.68;;
12493;SDS011;8260;51.422;6.786;2023-02-01T05:34:02;14.85;;;4.25;;
12493;SDS011;8260;51.422;6.786;2023-02-01T05:36:30;14.52;;;4.60;;
12493;SDS011;8260;51.422;6.786;2023-02-01T05:38:58;17.20;;;3.75;;
12493;SDS011;8260;51.422;6.786;2023-02-01T05:41:27;15.38;;;4.10;;
12493;SDS011;8260;51.422;6.786;2023-02-01T05:43:55;18.75;;;4.22;;
12493;SDS011;8260;51.422;6.786;2023-02-01T05:46:24;15.60;;;4.18;;
12493;SDS011;8260;51.422;6.786;2023-02-01T05:48:53;17.50;;;4.35;;
12493;SDS011;8260;51.422;6.786;2023-02-01T05:51:22;12.55;;;3.92;;
12493;SDS011;8260;51.422;6.786;2023-02-01T05:53:51;13.68;;;3.42;;
12493;SDS011;8260;51.422;6.786;2023-02-01T05:56:19;18.17;;;4.22;;
12493;SDS011;8260;51.422;6.786;2023-02-01T05:58:48;28.38;;;4.78;;
12493;SDS011;8260;51.422;6.786;2023-02-01T06:01:16;18.77;;;4.25;;
12493;SDS011;8260;51.422;6.786;2023-02-01T06:03:45;13.48;;;4.05;;
12493;SDS011;8260;51.422;6.786;2023-02-01T06:06:13;15.63;;;4.32;;
12493;SDS011;8260;51.422;6.786;2023-02-01T06:08:43;15.25;;;4.10;;
12493;SDS011;8260;51.422;6.786;2023-02-01T06:11:12;17.60;;;4.55;;
12493;SDS011;8260;51.422;6.786;2023-02-01T06:13:57;16.08;;;4.70;;
12493;SDS011;8260;51.422;6.786;2023-02-01T06:16:27;17.02;;;4.07;;
12493;SDS011;8260;51.422;6.786;2023-02-01T06:18:55;17.48;;;5.00;;
12493;SDS011;8260;51.422;6.786;2023-02-01T06:21:24;18.35;;;3.90;;
12493;SDS011;8260;51.422;6.786;2023-02-01T06:23:54;18.92;;;4.50;;
12493;SDS011;8260;51.422;6.786;2023-02-01T06:26:24;16.75;;;4.20;;
12493;SDS011;8260;51.422;6.786;2023-02-01T06:28:54;20.77;;;4.50;;
12493;SDS011;8260;51.422;6.786;2023-02-01T06:31:23;17.10;;;4.50;;
12493;SDS011;8260;51.422;6.786;2023-02-01T06:33:52;20.10;;;4.03;;
12493;SDS011;8260;51.422;6.786;2023-02-01T06:36:21;18.15;;;4.72;;
12493;SDS011;8260;51.422;6.786;2023-02-01T06:38:49;14.30;;;4.30;;
12493;SDS011;8260;51.422;6.786;2023-02-01T06:41:19;11.27;;;3.60;;
12493;SDS011;8260;51.422;6.786;2023-02-01T06:43:48;16.25;;;4.13;;
12493;SDS011;8260;51.422;6.786;2023-02-01T06:46:16;16.42;;;4.38;;
12493;SDS011;8260;51.422;6.786;2023-02-01T06:48:45;18.05;;;4.72;;
12493;SDS011;8260;51.422;6.786;2023-02-01T06:51:19;17.05;;;5.03;;
12493;SDS011;8260;51.422;6.786;2023-02-01T06:53:48;14.07;;;4.30;;
12493;SDS011;8260;51.422;6.786;2023-02-01T06:56:16;16.02;;;4.28;;
12493;SDS011;8260;51.422;6.786;2023-02-01T06:58:47;16.90;;;3.90;;
12493;SDS011;8260;51.422;6.786;2023-02-01T07:01:16;13.20;;;3.70;;
12493;SDS011;8260;51.422;6.786;2023-02-01T07:03:46;22.67;;;4.55;;
12493;SDS011;8260;51.422;6.786;2023-02-01T07:06:15;18.92;;;4.20;;
12493;SDS011;8260;51.422;6.786;2023-02-01T07:08:43;18.02;;;4.38;;
12493;SDS011;8260;51.422;6.786;2023-02-01T07:11:13;19.02;;;4.18;;
12493;SDS011;8260;51.422;6.786;2023-02-01T07:13:41;18.10;;;3.92;;
12493;SDS011;8260;51.422;6.786;2023-02-01T07:16:12;15.50;;;4.47;;
12493;SDS011;8260;51.422;6.786;2023-02-01T07:18:40;13.98;;;4.60;;
12493;SDS011;8260;51.422;6.786;2023-02-01T07:21:09;13.48;;;4.25;;
12493;SDS011;8260;51.422;6.786;2023-02-01T07:23:38;11.63;;;4.68;;
12493;SDS011;8260;51.422;6.786;2023-02-01T07:26:07;24.17;;;4.88;;
12493;SDS011;8260;51.422;6.786;2023-02-01T07:28:35;13.02;;;3.70;;
12493;SDS011;8260;51.422;6.786;2023-02-01T07:31:04;18.58;;;3.95;;
12493;SDS011;8260;51.422;6.786;2023-02-01T07:33:34;24.20;;;4.90;;
12493;SDS011;8260;51.422;6.786;2023-02-01T07:36:03;20.55;;;4.05;;
12493;SDS011;8260;51.422;6.786;2023-02-01T07:38:32;17.10;;;4.45;;
12493;SDS011;8260;51.422;6.786;2023-02-01T07:41:02;19.33;;;4.88;;
12493;SDS011;8260;51.422;6.786;2023-02-01T07:43:31;19.85;;;4.80;;
12493;SDS011;8260;51.422;6.786;2023-02-01T07:45:59;18.33;;;4.20;;
12493;SDS011;8260;51.422;6.786;2023-02-01T07:48:28;17.70;;;4.43;;
12493;SDS011;8260;51.422;6.786;2023-02-01T07:53:21;13.90;;;3.72;;
12493;SDS011;8260;51.422;6.786;2023-02-01T07:55:49;15.15;;;4.18;;
12493;SDS011;8260;51.422;6.786;2023-02-01T07:58:18;18.08;;;4.20;;
12493;SDS011;8260;51.422;6.786;2023-02-01T08:00:46;22.08;;;4.63;;
12493;SDS011;8260;51.422;6.786;2023-02-01T08:03:32;12.65;;;3.70;;
12493;SDS011;8260;51.422;6.786;2023-02-01T08:06:01;20.05;;;5.03;;
12493;SDS011;8260;51.422;6.786;2023-02-01T08:08:31;24.17;;;4.90;;
12493;SDS011;8260;51.422;6.786;2023-02-01T08:10:59;15.13;;;4.30;;
12493;SDS011;8260;51.422;6.786;2023-02-01T08:13:28;20.45;;;4.68;;
12493;SDS011;8260;51.422;6.786;2023-02-01T08:15:57;15.90;;;4.40;;
12493;SDS011;8260;51.422;6.786;2023-02-01T08:18:26;14.75;;;4.68;;
12493;SDS011;8260;51.422;6.786;2023-02-01T08:20:54;24.30;;;5.15;;
12493;SDS011;8260;51.422;6.786;2023-02-01T08:23:23;15.63;;;4.88;;
12493;SDS011;8260;51.422;6.786;2023-02-01T08:25:52;15.88;;;5.07;;
12493;SDS011;8260;51.422;6.786;2023-02-01T08:28:21;15.63;;;4.53;;
12493;SDS011;8260;51.422;6.786;2023-02-01T08:30:49;21.85;;;4.72;;
12493;SDS011;8260;51.422;6.786;2023-02-01T08:33:18;20.38;;;5.40;;
12493;SDS011;8260;51.422;6.786;2023-02-01T08:35:48;19.70;;;5.18;;
12493;SDS011;8260;51.422;6.786;2023-02-01T08:38:16;12.55;;;4.03;;
12493;SDS011;8260;51.422;6.786;2023-02-01T08:40:45;15.35;;;5.13;;
12493;SDS011;8260;51.422;6.786;2023-02-01T08:43:18;17.00;;;4.45;;
12493;SDS011;8260;51.422;6.786;2023-02-01T08:45:46;15.65;;;4.55;;
12493;SDS011;8260;51.422;6.786;2023-02-01T08:48:15;15.90;;;5.40;;
12493;SDS011;8260;51.422;6.786;2023-02-01T08:50:43;13.48;;;4.32;;
12493;SDS011;8260;51.422;6.786;2023-02-01T08:53:12;15.25;;;4.57;;
12493;SDS011;8260;51.422;6.786;2023-02-01T08:55:40;18.45;;;5.05;;
12493;SDS011;8260;51.422;6.786;2023-02-01T08:58:09;18.42;;;4.53;;
12493;SDS011;8260;51.422;6.786;2023-02-01T09:00:39;24.42;;;5.65;;
12493;SDS011;8260;51.422;6.786;2023-02-01T09:03:08;19.40;;;4.78;;
12493;SDS011;8260;51.422;6.786;2023-02-01T09:05:38;19.52;;;5.00;;
12493;SDS011;8260;51.422;6.786;2023-02-01T09:08:14;21.00;;;5.47;;
12493;SDS011;8260;51.422;6.786;2023-02-01T09:10:45;17.23;;;5.18;;
12493;SDS011;8260;51.422;6.786;2023-02-01T09:13:13;16.60;;;4.03;;
12493;SDS011;8260;51.422;6.786;2023-02-01T09:15:43;18.98;;;5.03;;
12493;SDS011;8260;51.422;6.786;2023-02-01T09:18:12;17.13;;;4.00;;
12493;SDS011;8260;51.422;6.786;2023-02-01T09:20:40;15.77;;;4.75;;
12493;SDS011;8260;51.422;6.786;2023-02-01T09:23:09;13.48;;;4.95;;
12493;SDS011;8260;51.422;6.786;2023-02-01T09:25:37;15.98;;;5.60;;
12493;SDS011;8260;51.422;6.786;2023-02-01T09:28:06;16.35;;;4.68;;
12493;SDS011;8260;51.422;6.786;2023-02-01T09:30:35;16.90;;;5.22;;
12493;SDS011;8260;51.422;6.786;2023-02-01T09:33:05;20.73;;;5.22;;
12493;SDS011;8260;51.422;6.786;2023-02-01T09:35:34;19.50;;;4.90;;
12493;SDS011;8260;51.422;6.786;2023-02-01T09:38:02;18.55;;;5.40;;
12493;SDS011;8260;51.422;6.786;2023-02-01T09:40:31;15.98;;;5.15;;
12493;SDS011;8260;51.422;6.786;2023-02-01T09:43:06;18.98;;;5.35;;
12493;SDS011;8260;51.422;6.786;2023-02-01T09:45:38;19.60;;;4.93;;
12493;SDS011;8260;51.422;6.786;2023-02-01T09:48:14;15.25;;;4.82;;
12493;SDS011;8260;51.422;6.786;2023-02-01T09:50:44;21.58;;;4.55;;
12493;SDS011;8260;51.422;6.786;2023-02-01T09:53:15;17.45;;;5.07;;
12493;SDS011;8260;51.422;6.786;2023-02-01T09:55:46;13.07;;;4.35;;
12493;SDS011;8260;51.422;6.786;2023-02-01T09:58:16;15.25;;;4.18;;
12493;SDS011;8260;51.422;6.786;2023-02-01T10:00:48;16.30;;;4.85;;
12493;SDS011;8260;51.422;6.786;2023-02-01T10:03:20;17.50;;;4.97;;
12493;SDS011;8260;51.422;6.786;2023-02-01T10:06:01;16.05;;;4.88;;
12493;SDS011;8260;51.422;6.786;2023-02-01T10:08:35;14.57;;;4.80;;
12493;SDS011;8260;51.422;6.786;2023-02-01T10:11:06;15.35;;;4.72;;
12493;SDS011;8260;51.422;6.786;2023-02-01T10:13:41;16.70;;;4.55;;
12493;SDS011;8260;51.422;6.786;2023-02-01T10:16:15;20.52;;;5.20;;
12493;SDS011;8260;51.422;6.786;2023-02-01T10:18:50;21.92;;;5.20;;
12493;SDS011;8260;51.422;6.786;2023-02-01T10:21:23;19.88;;;4.72;;
12493;SDS011;8260;51.422;6.786;2023-02-01T10:26:45;20.45;;;6.45;;
12493;SDS011;8260;51.422;6.786;2023-02-01T10:29:15;16.23;;;4.63;;
12493;SDS011;8260;51.422;6.786;2023-02-01T10:31:45;13.85;;;4.43;;
12493;SDS011;8260;51.422;6.786;2023-02-01T10:34:17;12.98;;;4.95;;
12493;SDS011;8260;51.422;6.786;2023-02-01T10:36:52;17.65;;;4.93;;
12493;SDS011;8260;51.422;6.786;2023-02-01T10:39:21;13.55;;;4.32;;
12493;SDS011;8260;51.422;6.786;2023-02-01T10:41:50;14.68;;;5.18;;
12493;SDS011;8260;51.422;6.786;2023-02-01T10:44:20;20.70;;;4.10;;
12493;SDS011;8260;51.422;6.786;2023-02-01T10:46:49;14.90;;;4.47;;
12493;SDS011;8260;51.422;6.786;2023-02-01T10:49:24;19.05;;;5.15;;
12493;SDS011;8260;51.422;6.786;2023-02-01T10:51:54;16.17;;;5.55;;
12493;SDS011;8260;51.422;6.786;2023-02-01T10:54:33;15.10;;;4.72;;
12493;SDS011;8260;51.422;6.786;2023-02-01T10:57:02;19.65;;;5.97;;
12493;SDS011;8260;51.422;6.786;2023-02-01T10:59:30;14.85;;;4.32;;
12493;SDS011;8260;51.422;6.786;2023-02-01T11:02:05;15.70;;;4.88;;
12493;SDS011;8260;51.422;6.786;2023-02-01T11:04:41;12.73;;;4.88;;
12493;SDS011;8260;51.422;6.786;2023-02-01T11:07:13;14.80;;;4.40;;
12493;SDS011;8260;51.422;6.786;2023-02-01T11:09:49;16.98;;;4.70;;
12493;SDS011;8260;51.422;6.786;2023-02-01T11:12:22;20.38;;;5.03;;
12493;SDS011;8260;51.422;6.786;2023-02-01T11:14:56;12.32;;;4.50;;
12493;SDS011;8260;51.422;6.786;2023-02-01T11:17:25;13.18;;;4.32;;
12493;SDS011;8260;51.422;6.786;2023-02-01T11:19:59;18.08;;;4.43;;
12493;SDS011;8260;51.422;6.786;2023-02-01T11:22:28;15.00;;;4.65;;
12493;SDS011;8260;51.422;6.786;2023-02-01T11:24:57;16.80;;;4.95;;
12493;SDS011;8260;51.422;6.786;2023-02-01T11:27:27;13.15;;;4.32;;
12493;SDS011;8260;51.422;6.786;2023-02-01T11:30:41;20.40;;;5.63;;
12493;SDS011;8260;51.422;6.786;2023-02-01T11:33:12;14.65;;;4.57;;
12493;SDS011;8260;51.422;6.786;2023-02-01T11:35:41;14.18;;;4.90;;
12493;SDS011;8260;51.422;6.786;2023-02-01T11:38:11;16.85;;;4.78;;
12493;SDS011;8260;51.422;6.786;2023-02-01T11:40:41;16.40;;;4.32;;
12493;SDS011;8260;51.422;6.786;2023-02-01T11:43:13;18.75;;;4.95;;
12493;SDS011;8260;51.422;6.786;2023-02-01T11:45:43;15.23;;;5.03;;
12493;SDS011;8260;51.422;6.786;2023-02-01T11:48:21;13.77;;;4.70;;
12493;SDS011;8260;51.422;6.786;2023-02-01T11:50:55;22.67;;;5.22;;
12493;SDS011;8260;51.422;6.786;2023-02-01T11:53:29;13.30;;;4.70;;
12493;SDS011;8260;51.422;6.786;2023-02-01T11:56:03;21.00;;;5.22;;
12493;SDS011;8260;51.422;6.786;2023-02-01T12:01:27;13.55;;;4.75;;
12493;SDS011;8260;51.422;6.786;2023-02-01T12:06:48;16.30;;;5.07;;
12493;SDS011;8260;51.422;6.786;2023-02-01T12:12:22;12.88;;;4.57;;
12493;SDS011;8260;51.422;6.786;2023-02-01T12:14:56;21.95;;;5.05;;
12493;SDS011;8260;51.422;6.786;2023-02-01T12:20:28;17.25;;;4.85;;
12493;SDS011;8260;51.422;6.786;2023-02-01T12:23:04;21.02;;;4.68;;
12493;SDS011;8260;51.422;6.786;2023-02-01T12:25:36;13.13;;;4.60;;
12493;SDS011;8260;51.422;6.786;2023-02-01T12:28:24;15.15;;;4.63;;
12493;SDS011;8260;51.422;6.786;2023-02-01T12:31:01;10.98;;;3.88;;
12493;SDS011;8260;51.422;6.786;2023-02-01T12:33:37;14.70;;;3.50;;
12493;SDS011;8260;51.422;6.786;2023-02-01T12:36:10;8.82;;;3.22;;
12493;SDS011;8260;51.422;6.786;2023-02-01T12:38:44;14.10;;;3.35;;
12493;SDS011;8260;51.422;6.786;2023-02-01T12:41:18;17.80;;;3.60;;
12493;SDS011;8260;51.422;6.786;2023-02-01T12:43:50;10.63;;;2.97;;
12493;SDS011;8260;51.422;6.786;2023-02-01T12:46:21;18.17;;;3.85;;
12493;SDS011;8260;51.422;6.786;2023-02-01T12:48:53;17.58;;;3.50;;
12493;SDS011;8260;51.422;6.786;2023-02-01T12:51:24;13.65;;;3.72;;
12493;SDS011;8260;51.422;6.786;2023-02-01T12:53:55;13.35;;;3.33;;
12493;SDS011;8260;51.422;6.786;2023-02-01T12:56:26;10.30;;;3.15;;
12493;SDS011;8260;51.422;6.786;2023-02-01T12:58:58;11.80;;;2.78;;
12493;SDS011;8260;51.422;6.786;2023-02-01T13:01:28;11.05;;;3.30;;
12493;SDS011;8260;51.422;6.786;2023-02-01T13:03:59;14.90;;;2.83;;
12493;SDS011;8260;51.422;6.786;2023-02-01T13:06:32;13.10;;;2.97;;
12493;SDS011;8260;51.422;6.786;2023-02-01T13:09:04;13.95;;;3.45;;
12493;SDS011;8260;51.422;6.786;2023-02-01T13:11:35;13.85;;;3.45;;
12493;SDS011;8260;51.422;6.786;2023-02-01T13:14:07;11.60;;;3.67;;
12493;SDS011;8260;51.422;6.786;2023-02-01T13:16:40;12.73;;;3.63;;
12493;SDS011;8260;51.422;6.786;2023-02-01T13:19:10;12.77;;;3.13;;
12493;SDS011;8260;51.422;6.786;2023-02-01T13:21:42;9.48;;;3.05;;
12493;SDS011;8260;51.422;6.786;2023-02-01T13:24:16;10.75;;;3.20;;
12493;SDS011;8260;51.422;6.786;2023-02-01T13:26:46;9.00;;;3.10;;
12493;SDS011;8260;51.422;6.786;2023-02-01T13:29:16;16.40;;;3.80;;
12493;SDS011;8260;51.422;6.786;2023-02-01T13:31:53;13.00;;;3.35;;
12493;SDS011;8260;51.422;6.786;2023-02-01T13:34:39;13.38;;;3.00;;
12493;SDS011;8260;51.422;6.786;2023-02-01T13:37:22;12.40;;;3.42;;
12493;SDS011;8260;51.422;6.786;2023-02-01T13:42:41;15.82;;;3.40;;
12493;SDS011;8260;51.422;6.786;2023-02-01T13:45:14;9.75;;;3.08;;
12493;SDS011;8260;51.422;6.786;2023-02-01T13:47:44;16.20;;;3.45;;
12493;SDS011;8260;51.422;6.786;2023-02-01T13:50:19;10.05;;;3.15;;
12493;SDS011;8260;51.422;6.786;2023-02-01T13:52:51;13.13;;;3.00;;
12493;SDS011;8260;51.422;6.786;2023-02-01T13:55:26;12.80;;;2.92;;
12493;SDS011;8260;51.422;6.786;2023-02-01T13:58:05;12.35;;;3.55;;
12493;SDS011;8260;51.422;6.786;2023-02-01T14:00:39;11.52;;;4.43;;
12493;SDS011;8260;51.422;6.786;2023-02-01T14:05:56;13.35;;;3.40;;
12493;SDS011;8260;51.422;6.786;2023-02-01T14:08:36;12.40;;;2.55;;
12493;SDS011;8260;51.422;6.786;2023-02-01T14:11:05;11.57;;;3.00;;
12493;SDS011;8260;51.422;6.786;2023-02-01T14:13:34;17.60;;;3.35;;
12493;SDS011;8260;51.422;6.786;2023-02-01T14:16:14;12.13;;;3.80;;
12493;SDS011;8260;51.422;6.786;2023-02-01T14:18:48;9.15;;;3.28;;
12493;SDS011;8260;51.422;6.786;2023-02-01T14:21:18;20.23;;;3.85;;
12493;SDS011;8260;51.422;6.786;2023-02-01T14:23:54;11.65;;;3.65;;
12493;SDS011;8260;51.422;6.786;2023-02-01T14:26:24;11.95;;;3.60;;
12493;SDS011;8260;51.422;6.786;2023-02-01T14:28:57;12.95;;;2.70;;
12493;SDS011;8260;51.422;6.786;2023-02-01T14:31:41;15.65;;;3.42;;
12493;SDS011;8260;51.422;6.786;2023-02-01T14:34:13;14.25;;;3.75;;
12493;SDS011;8260;51.422;6.786;2023-02-01T14:36:44;17.02;;;3.55;;
12493;SDS011;8260;51.422;6.786;2023-02-01T14:39:20;12.05;;;3.80;;
12493;SDS011;8260;51.422;6.786;2023-02-01T14:41:52;13.40;;;3.90;;
12493;SDS011;8260;51.422;6.786;2023-02-01T14:44:32;10.40;;;2.97;;
12493;SDS011;8260;51.422;6.786;2023-02-01T14:47:10;13.73;;;3.30;;
12493;SDS011;8260;51.422;6.786;2023-02-01T14:49:42;10.98;;;3.75;;
12493;SDS011;8260;51.422;6.786;2023-02-01T14:52:16;10.50;;;3.13;;
12493;SDS011;8260;51.422;6.786;2023-02-01T14:54:46;9.02;;;2.75;;
12493;SDS011;8260;51.422;6.786;2023-02-01T14:57:16;10.57;;;3.55;;
12493;SDS011;8260;51.422;6.786;2023-02-01T14:59:46;15.15;;;3.20;;
12493;SDS011;8260;51.422;6.786;2023-02-01T15:02:21;8.50;;;3.13;;
12493;SDS011;8260;51.422;6.786;2023-02-01T15:04:53;11.38;;;3.38;;
12493;SDS011;8260;51.422;6.786;2023-02-01T15:07:23;11.50;;;3.20;;
12493;SDS011;8260;51.422;6.786;2023-02-01T15:09:53;11.70;;;2.90;;
12493;SDS011;8260;51.422;6.786;2023-02-01T15:12:23;15.45;;;3.80;;
12493;SDS011;8260;51.422;6.786;2023-02-01T15:15:10;12.15;;;3.33;;
12493;SDS011;8260;51.422;6.786;2023-02-01T15:17:41;15.00;;;2.65;;
12493;SDS011;8260;51.422;6.786;2023-02-01T15:20:13;12.50;;;3.38;;
12493;SDS011;8260;51.422;6.786;2023-02-01T15:22:52;14.77;;;4.15;;
12493;SDS011;8260;51.422;6.786;2023-02-01T15:25:22;9.98;;;3.15;;
12493;SDS011;8260;51.422;6.786;2023-02-01T15:27:52;12.48;;;3.45;;
12493;SDS011;8260;51.422;6.786;2023-02-01T15:30:22;19.58;;;4.05;;
12493;SDS011;8260;51.422;6.786;2023-02-01T15:33:03;13.13;;;3.45;;
12493;SDS011;8260;51.422;6.786;2023-02-01T15:35:38;12.05;;;3.53;;
12493;SDS011;8260;51.422;6.786;2023-02-01T15:38:30;12.88;;;3.22;;
12493;SDS011;8260;51.422;6.786;2023-02-01T15:40:59;10.38;;;3.40;;
12493;SDS011;8260;51.422;6.786;2023-02-01T15:43:29;13.18;;;3.88;;